sensor_id;sensor_type;location;lat;lon;timestamp;temperature;humidity
68943;DHT22;60852;52.190;4.422;2023-09-30T00:01:00;15.85;75.54
68943;DHT22;60852;52.190;4.422;2023-09-30T00:03:25;15.87;75.59
68943;DHT22;60852;52.190;4.422;2023-09-30T00:05:51;15.80;75.62
68943;DHT22;60852;52.190;4.422;2023-09-30T00:08:17;15.75;75.79
68943;DHT22;60852;52.190;4.422;2023-09-30T00:10:42;15.73;76.03
68943;DHT22;60852;52.190;4.422;2023-09-30T00:13:08;15.74;76.07
68943;DHT22;60852;52.190;4.422;2023-09-30T00:15:33;15.68;76.06
68943;DHT22;60852;52.190;4.422;2023-09-30T00:17:59;15.65;76.19
68943;DHT22;60852;52.190;4.422;2023-09-30T00:20:27;15.64;76.23
68943;DHT22;60852;52.190;4.422;2023-09-30T00:22:52;15.61;76.34
68943;DHT22;60852;52.190;4.422;2023-09-30T00:25:18;15.58;76.31
68943;DHT22;60852;52.190;4.422;2023-09-30T00:27:44;15.54;76.47
68943;DHT22;60852;52.190;4.422;2023-09-30T00:30:09;15.55;76.40
68943;DHT22;60852;52.190;4.422;2023-09-30T00:32:35;15.55;76.58
68943;DHT22;60852;52.190;4.422;2023-09-30T00:35:02;15.53;76.51
68943;DHT22;60852;52.190;4.422;2023-09-30T00:37:28;15.49;76.37
68943;DHT22;60852;52.190;4.422;2023-09-30T00:39:53;15.46;76.59
68943;DHT22;60852;52.190;4.422;2023-09-30T00:42:19;15.44;76.77
68943;DHT22;60852;52.190;4.422;2023-09-30T00:44:46;15.46;76.61
68943;DHT22;60852;52.190;4.422;2023-09-30T00:47:13;15.40;76.36
68943;DHT22;60852;52.190;4.422;2023-09-30T00:49:41;15.36;76.58
68943;DHT22;60852;52.190;4.422;2023-09-30T00:52:09;15.33;76.73
68943;DHT22;60852;52.190;4.422;2023-09-30T00:54:35;15.29;76.99
68943;DHT22;60852;52.190;4.422;2023-09-30T00:57:03;15.30;76.79
68943;DHT22;60852;52.190;4.422;2023-09-30T00:59:31;15.23;76.83
68943;DHT22;60852;52.190;4.422;2023-09-30T01:01:59;15.19;77.03
68943;DHT22;60852;52.190;4.422;2023-09-30T01:04:28;15.09;77.02
68943;DHT22;60852;52.190;4.422;2023-09-30T01:06:54;15.09;77.37
68943;DHT22;60852;52.190;4.422;2023-09-30T01:09:20;15.12;77.58
68943;DHT22;60852;52.190;4.422;2023-09-30T01:11:46;15.12;77.74
68943;DHT22;60852;52.190;4.422;2023-09-30T01:14:46;15.10;77.85
68943;DHT22;60852;52.190;4.422;2023-09-30T01:17:12;15.10;78.08
68943;DHT22;60852;52.190;4.422;2023-09-30T01:19:39;15.18;78.19
68943;DHT22;60852;52.190;4.422;2023-09-30T01:22:05;15.16;78.18
68943;DHT22;60852;52.190;4.422;2023-09-30T01:24:31;15.12;78.15
68943;DHT22;60852;52.190;4.422;2023-09-30T01:26:56;15.12;78.33
68943;DHT22;60852;52.190;4.422;2023-09-30T01:29:22;15.10;78.33
68943;DHT22;60852;52.190;4.422;2023-09-30T01:31:48;15.09;78.30
68943;DHT22;60852;52.190;4.422;2023-09-30T01:34:15;15.06;78.09
68943;DHT22;60852;52.190;4.422;2023-09-30T01:36:42;14.99;78.28
68943;DHT22;60852;52.190;4.422;2023-09-30T01:39:09;14.98;78.41
68943;DHT22;60852;52.190;4.422;2023-09-30T01:41:39;14.98;78.52
68943;DHT22;60852;52.190;4.422;2023-09-30T01:44:05;14.99;78.42
68943;DHT22;60852;52.190;4.422;2023-09-30T01:46:30;14.95;78.46
68943;DHT22;60852;52.190;4.422;2023-09-30T01:48:56;14.93;78.66
68943;DHT22;60852;52.190;4.422;2023-09-30T01:51:21;14.92;78.62
68943;DHT22;60852;52.190;4.422;2023-09-30T01:53:49;14.92;78.66
68943;DHT22;60852;52.190;4.422;2023-09-30T01:56:15;14.86;78.90
68943;DHT22;60852;52.190;4.422;2023-09-30T01:58:41;14.81;79.47
68943;DHT22;60852;52.190;4.422;2023-09-30T02:01:07;14.78;79.99
68943;DHT22;60852;52.190;4.422;2023-09-30T02:03:32;14.85;80.35
68943;DHT22;60852;52.190;4.422;2023-09-30T02:05:58;14.93;80.17
68943;DHT22;60852;52.190;4.422;2023-09-30T02:08:24;14.98;80.18
68943;DHT22;60852;52.190;4.422;2023-09-30T02:10:49;15.05;80.01
68943;DHT22;60852;52.190;4.422;2023-09-30T02:13:17;15.06;79.75
68943;DHT22;60852;52.190;4.422;2023-09-30T02:15:43;15.06;79.85
68943;DHT22;60852;52.190;4.422;2023-09-30T02:18:09;15.06;79.60
68943;DHT22;60852;52.190;4.422;2023-09-30T02:20:35;15.09;79.65
68943;DHT22;60852;52.190;4.422;2023-09-30T02:23:13;15.10;79.42
68943;DHT22;60852;52.190;4.422;2023-09-30T02:25:42;15.05;79.39
68943;DHT22;60852;52.190;4.422;2023-09-30T02:28:09;15.03;79.59
68943;DHT22;60852;52.190;4.422;2023-09-30T02:30:35;15.03;79.76
68943;DHT22;60852;52.190;4.422;2023-09-30T02:33:02;15.05;79.80
68943;DHT22;60852;52.190;4.422;2023-09-30T02:35:28;15.12;79.70
68943;DHT22;60852;52.190;4.422;2023-09-30T02:37:54;15.16;79.75
68943;DHT22;60852;52.190;4.422;2023-09-30T02:40:20;15.18;79.58
68943;DHT22;60852;52.190;4.422;2023-09-30T02:42:46;15.20;79.43
68943;DHT22;60852;52.190;4.422;2023-09-30T02:45:13;15.25;79.54
68943;DHT22;60852;52.190;4.422;2023-09-30T02:47:39;15.26;79.42
68943;DHT22;60852;52.190;4.422;2023-09-30T02:50:07;15.27;79.47
68943;DHT22;60852;52.190;4.422;2023-09-30T02:52:39;15.25;79.28
68943;DHT22;60852;52.190;4.422;2023-09-30T02:55:10;15.25;79.38
68943;DHT22;60852;52.190;4.422;2023-09-30T02:57:37;15.23;79.39
68943;DHT22;60852;52.190;4.422;2023-09-30T03:00:06;15.29;79.53
68943;DHT22;60852;52.190;4.422;2023-09-30T03:02:55;15.30;79.60
68943;DHT22;60852;52.190;4.422;2023-09-30T03:05:21;15.33;79.51
68943;DHT22;60852;52.190;4.422;2023-09-30T03:07:48;15.33;79.41
68943;DHT22;60852;52.190;4.422;2023-09-30T03:10:14;15.33;79.38
68943;DHT22;60852;52.190;4.422;2023-09-30T03:12:46;15.34;79.40
68943;DHT22;60852;52.190;4.422;2023-09-30T03:15:12;15.34;79.37
68943;DHT22;60852;52.190;4.422;2023-09-30T03:17:38;15.29;79.22
68943;DHT22;60852;52.190;4.422;2023-09-30T03:20:03;15.32;79.30
68943;DHT22;60852;52.190;4.422;2023-09-30T03:22:41;15.29;79.51
68943;DHT22;60852;52.190;4.422;2023-09-30T03:25:09;15.32;79.49
68943;DHT22;60852;52.190;4.422;2023-09-30T03:27:34;15.26;79.63
68943;DHT22;60852;52.190;4.422;2023-09-30T03:30:03;15.27;79.70
68943;DHT22;60852;52.190;4.422;2023-09-30T03:32:31;15.26;79.76
68943;DHT22;60852;52.190;4.422;2023-09-30T03:34:59;15.25;79.89
68943;DHT22;60852;52.190;4.422;2023-09-30T03:37:26;15.25;80.05
68943;DHT22;60852;52.190;4.422;2023-09-30T03:39:55;15.27;80.07
68943;DHT22;60852;52.190;4.422;2023-09-30T03:42:21;15.27;80.14
68943;DHT22;60852;52.190;4.422;2023-09-30T03:44:47;15.29;80.21
68943;DHT22;60852;52.190;4.422;2023-09-30T03:47:15;15.32;80.13
68943;DHT22;60852;52.190;4.422;2023-09-30T03:49:41;15.33;80.12
68943;DHT22;60852;52.190;4.422;2023-09-30T03:52:08;15.32;80.13
68943;DHT22;60852;52.190;4.422;2023-09-30T03:54:34;15.29;80.23
68943;DHT22;60852;52.190;4.422;2023-09-30T03:56:59;15.29;80.48
68943;DHT22;60852;52.190;4.422;2023-09-30T03:59:26;15.33;80.67
68943;DHT22;60852;52.190;4.422;2023-09-30T04:01:52;15.39;80.56
68943;DHT22;60852;52.190;4.422;2023-09-30T04:04:21;15.40;80.42
68943;DHT22;60852;52.190;4.422;2023-09-30T04:06:47;15.39;80.30
68943;DHT22;60852;52.190;4.422;2023-09-30T04:09:15;15.36;80.32
68943;DHT22;60852;52.190;4.422;2023-09-30T04:11:41;15.39;80.33
68943;DHT22;60852;52.190;4.422;2023-09-30T04:14:08;15.37;80.21
68943;DHT22;60852;52.190;4.422;2023-09-30T04:16:35;15.36;80.18
68943;DHT22;60852;52.190;4.422;2023-09-30T04:19:03;15.37;80.35
68943;DHT22;60852;52.190;4.422;2023-09-30T04:21:29;15.39;80.40
68943;DHT22;60852;52.190;4.422;2023-09-30T04:23:58;15.42;80.21
68943;DHT22;60852;52.190;4.422;2023-09-30T04:26:24;15.37;80.18
68943;DHT22;60852;52.190;4.422;2023-09-30T04:28:50;15.36;80.33
68943;DHT22;60852;52.190;4.422;2023-09-30T04:31:16;15.34;80.41
68943;DHT22;60852;52.190;4.422;2023-09-30T04:33:43;15.39;80.57
68943;DHT22;60852;52.190;4.422;2023-09-30T04:36:09;15.42;80.64
68943;DHT22;60852;52.190;4.422;2023-09-30T04:38:35;15.47;80.70
68943;DHT22;60852;52.190;4.422;2023-09-30T04:41:03;15.51;80.64
68943;DHT22;60852;52.190;4.422;2023-09-30T04:43:29;15.53;80.69
68943;DHT22;60852;52.190;4.422;2023-09-30T04:45:54;15.51;80.64
68943;DHT22;60852;52.190;4.422;2023-09-30T04:48:23;15.49;80.78
68943;DHT22;60852;52.190;4.422;2023-09-30T04:50:48;15.46;80.86
68943;DHT22;60852;52.190;4.422;2023-09-30T04:53:14;15.40;81.14
68943;DHT22;60852;52.190;4.422;2023-09-30T04:55:41;15.40;81.30
68943;DHT22;60852;52.190;4.422;2023-09-30T04:58:07;15.44;81.33
68943;DHT22;60852;52.190;4.422;2023-09-30T05:00:33;15.43;81.18
68943;DHT22;60852;52.190;4.422;2023-09-30T05:03:00;15.40;81.29
68943;DHT22;60852;52.190;4.422;2023-09-30T05:05:26;15.40;81.48
68943;DHT22;60852;52.190;4.422;2023-09-30T05:07:52;15.44;81.50
68943;DHT22;60852;52.190;4.422;2023-09-30T05:10:17;15.46;81.54
68943;DHT22;60852;52.190;4.422;2023-09-30T05:12:43;15.44;81.52
68943;DHT22;60852;52.190;4.422;2023-09-30T05:15:12;15.43;81.35
68943;DHT22;60852;52.190;4.422;2023-09-30T05:17:38;15.39;81.30
68943;DHT22;60852;52.190;4.422;2023-09-30T05:20:04;15.36;81.47
68943;DHT22;60852;52.190;4.422;2023-09-30T05:22:33;15.34;81.75
68943;DHT22;60852;52.190;4.422;2023-09-30T05:24:59;15.33;81.75
68943;DHT22;60852;52.190;4.422;2023-09-30T05:27:25;15.33;81.64
68943;DHT22;60852;52.190;4.422;2023-09-30T05:29:51;15.26;81.61
68943;DHT22;60852;52.190;4.422;2023-09-30T05:32:17;15.25;81.65
68943;DHT22;60852;52.190;4.422;2023-09-30T05:34:44;15.22;81.85
68943;DHT22;60852;52.190;4.422;2023-09-30T05:37:09;15.23;81.93
68943;DHT22;60852;52.190;4.422;2023-09-30T05:39:34;15.22;82.05
68943;DHT22;60852;52.190;4.422;2023-09-30T05:42:00;15.19;82.23
68943;DHT22;60852;52.190;4.422;2023-09-30T05:44:26;15.18;82.27
68943;DHT22;60852;52.190;4.422;2023-09-30T05:46:53;15.19;82.38
68943;DHT22;60852;52.190;4.422;2023-09-30T05:49:20;15.16;82.31
68943;DHT22;60852;52.190;4.422;2023-09-30T05:51:45;15.10;82.27
68943;DHT22;60852;52.190;4.422;2023-09-30T05:54:12;15.07;82.46
68943;DHT22;60852;52.190;4.422;2023-09-30T05:56:38;15.07;82.47
68943;DHT22;60852;52.190;4.422;2023-09-30T05:59:07;15.07;82.69
68943;DHT22;60852;52.190;4.422;2023-09-30T06:01:33;15.09;82.84
68943;DHT22;60852;52.190;4.422;2023-09-30T06:03:59;15.09;82.63
68943;DHT22;60852;52.190;4.422;2023-09-30T06:06:26;15.07;82.57
68943;DHT22;60852;52.190;4.422;2023-09-30T06:08:53;15.09;82.51
68943;DHT22;60852;52.190;4.422;2023-09-30T06:11:20;15.09;82.42
68943;DHT22;60852;52.190;4.422;2023-09-30T06:13:53;15.09;82.63
68943;DHT22;60852;52.190;4.422;2023-09-30T06:16:19;15.07;82.60
68943;DHT22;60852;52.190;4.422;2023-09-30T06:18:45;15.09;82.65
68943;DHT22;60852;52.190;4.422;2023-09-30T06:21:12;15.13;82.67
68943;DHT22;60852;52.190;4.422;2023-09-30T06:23:40;15.19;82.56
68943;DHT22;60852;52.190;4.422;2023-09-30T06:26:05;15.20;82.81
68943;DHT22;60852;52.190;4.422;2023-09-30T06:28:31;15.20;82.89
68943;DHT22;60852;52.190;4.422;2023-09-30T06:30:57;15.27;82.85
68943;DHT22;60852;52.190;4.422;2023-09-30T06:33:23;15.33;82.90
68943;DHT22;60852;52.190;4.422;2023-09-30T06:35:49;15.32;82.85
68943;DHT22;60852;52.190;4.422;2023-09-30T06:38:20;15.37;82.96
68943;DHT22;60852;52.190;4.422;2023-09-30T06:40:47;15.39;83.03
68943;DHT22;60852;52.190;4.422;2023-09-30T06:43:16;15.42;83.06
68943;DHT22;60852;52.190;4.422;2023-09-30T06:45:42;15.43;83.13
68943;DHT22;60852;52.190;4.422;2023-09-30T06:48:09;15.47;83.32
68943;DHT22;60852;52.190;4.422;2023-09-30T06:50:48;15.58;83.39
68943;DHT22;60852;52.190;4.422;2023-09-30T06:53:14;15.71;83.32
68943;DHT22;60852;52.190;4.422;2023-09-30T06:55:41;15.73;83.28
68943;DHT22;60852;52.190;4.422;2023-09-30T06:58:07;15.71;83.50
68943;DHT22;60852;52.190;4.422;2023-09-30T07:00:33;15.81;83.70
68943;DHT22;60852;52.190;4.422;2023-09-30T07:03:00;15.95;83.79
68943;DHT22;60852;52.190;4.422;2023-09-30T07:05:26;16.12;83.78
68943;DHT22;60852;52.190;4.422;2023-09-30T07:07:53;16.26;83.70
68943;DHT22;60852;52.190;4.422;2023-09-30T07:10:19;16.42;83.40
68943;DHT22;60852;52.190;4.422;2023-09-30T07:12:44;16.42;82.91
68943;DHT22;60852;52.190;4.422;2023-09-30T07:15:10;16.33;82.91
68943;DHT22;60852;52.190;4.422;2023-09-30T07:17:36;16.28;83.12
68943;DHT22;60852;52.190;4.422;2023-09-30T07:20:03;16.32;83.19
68943;DHT22;60852;52.190;4.422;2023-09-30T07:22:30;16.33;83.08
68943;DHT22;60852;52.190;4.422;2023-09-30T07:24:57;16.30;82.94
68943;DHT22;60852;52.190;4.422;2023-09-30T07:27:23;16.30;83.21
68943;DHT22;60852;52.190;4.422;2023-09-30T07:29:49;16.39;83.14
68943;DHT22;60852;52.190;4.422;2023-09-30T07:32:15;16.43;83.02
68943;DHT22;60852;52.190;4.422;2023-09-30T07:34:40;16.45;83.17
68943;DHT22;60852;52.190;4.422;2023-09-30T07:37:06;16.45;83.05
68943;DHT22;60852;52.190;4.422;2023-09-30T07:39:31;16.46;83.00
68943;DHT22;60852;52.190;4.422;2023-09-30T07:41:57;16.46;82.97
68943;DHT22;60852;52.190;4.422;2023-09-30T07:44:22;16.45;82.85
68943;DHT22;60852;52.190;4.422;2023-09-30T07:46:48;16.48;82.85
68943;DHT22;60852;52.190;4.422;2023-09-30T07:49:13;16.49;82.80
68943;DHT22;60852;52.190;4.422;2023-09-30T07:51:39;16.59;82.93
68943;DHT22;60852;52.190;4.422;2023-09-30T07:54:05;16.66;83.13
68943;DHT22;60852;52.190;4.422;2023-09-30T07:56:31;16.74;83.08
68943;DHT22;60852;52.190;4.422;2023-09-30T07:58:57;16.84;83.05
68943;DHT22;60852;52.190;4.422;2023-09-30T08:01:22;16.94;83.02
68943;DHT22;60852;52.190;4.422;2023-09-30T08:03:48;17.03;82.97
68943;DHT22;60852;52.190;4.422;2023-09-30T08:06:13;17.08;82.74
68943;DHT22;60852;52.190;4.422;2023-09-30T08:08:39;17.15;82.82
68943;DHT22;60852;52.190;4.422;2023-09-30T08:11:05;17.25;82.67
68943;DHT22;60852;52.190;4.422;2023-09-30T08:13:34;17.28;82.39
68943;DHT22;60852;52.190;4.422;2023-09-30T08:16:00;17.32;82.55
68943;DHT22;60852;52.190;4.422;2023-09-30T08:18:25;17.36;82.53
68943;DHT22;60852;52.190;4.422;2023-09-30T08:20:51;17.49;82.60
68943;DHT22;60852;52.190;4.422;2023-09-30T08:23:16;17.58;82.34
68943;DHT22;60852;52.190;4.422;2023-09-30T08:25:42;17.65;82.31
68943;DHT22;60852;52.190;4.422;2023-09-30T08:28:07;17.69;82.22
68943;DHT22;60852;52.190;4.422;2023-09-30T08:30:37;17.76;81.97
68943;DHT22;60852;52.190;4.422;2023-09-30T08:33:03;17.85;81.54
68943;DHT22;60852;52.190;4.422;2023-09-30T08:35:30;17.87;81.46
68943;DHT22;60852;52.190;4.422;2023-09-30T08:37:55;17.93;81.23
68943;DHT22;60852;52.190;4.422;2023-09-30T08:40:21;17.97;81.08
68943;DHT22;60852;52.190;4.422;2023-09-30T08:42:51;17.94;80.90
68943;DHT22;60852;52.190;4.422;2023-09-30T08:45:18;17.97;80.78
68943;DHT22;60852;52.190;4.422;2023-09-30T08:47:45;18.00;80.60
68943;DHT22;60852;52.190;4.422;2023-09-30T08:50:16;18.03;80.01
68943;DHT22;60852;52.190;4.422;2023-09-30T08:52:44;18.03;80.17
68943;DHT22;60852;52.190;4.422;2023-09-30T08:55:11;18.06;79.78
68943;DHT22;60852;52.190;4.422;2023-09-30T08:57:39;18.10;79.64
68943;DHT22;60852;52.190;4.422;2023-09-30T09:00:07;18.17;79.68
68943;DHT22;60852;52.190;4.422;2023-09-30T09:02:34;18.17;79.10
68943;DHT22;60852;52.190;4.422;2023-09-30T09:17:07;17.73;80.83
68943;DHT22;60852;52.190;4.422;2023-09-30T09:19:34;18.00;79.90
68943;DHT22;60852;52.190;4.422;2023-09-30T09:22:01;18.20;78.97
68943;DHT22;60852;52.190;4.422;2023-09-30T09:24:34;18.43;78.25
68943;DHT22;60852;52.190;4.422;2023-09-30T09:27:11;18.54;76.71
68943;DHT22;60852;52.190;4.422;2023-09-30T09:29:39;18.58;76.61
68943;DHT22;60852;52.190;4.422;2023-09-30T09:34:36;18.78;76.09
68943;DHT22;60852;52.190;4.422;2023-09-30T09:37:21;18.88;75.41
68943;DHT22;60852;52.190;4.422;2023-09-30T09:42:29;19.03;74.41
68943;DHT22;60852;52.190;4.422;2023-09-30T09:45:01;19.05;73.25
68943;DHT22;60852;52.190;4.422;2023-09-30T09:47:29;19.09;71.31
68943;DHT22;60852;52.190;4.422;2023-09-30T09:49:57;19.13;70.21
68943;DHT22;60852;52.190;4.422;2023-09-30T09:52:24;19.10;68.20
68943;DHT22;60852;52.190;4.422;2023-09-30T09:54:51;19.12;67.85
68943;DHT22;60852;52.190;4.422;2023-09-30T09:57:20;19.18;68.30
68943;DHT22;60852;52.190;4.422;2023-09-30T09:59:47;19.23;67.77
68943;DHT22;60852;52.190;4.422;2023-09-30T10:02:14;19.30;66.91
68943;DHT22;60852;52.190;4.422;2023-09-30T10:04:47;19.41;66.86
68943;DHT22;60852;52.190;4.422;2023-09-30T10:07:28;19.57;65.82
68943;DHT22;60852;52.190;4.422;2023-09-30T10:09:56;19.68;65.02
68943;DHT22;60852;52.190;4.422;2023-09-30T10:12:25;19.77;65.04
68943;DHT22;60852;52.190;4.422;2023-09-30T10:14:52;19.75;63.76
68943;DHT22;60852;52.190;4.422;2023-09-30T10:17:18;19.70;64.39
68943;DHT22;60852;52.190;4.422;2023-09-30T10:20:03;19.61;64.39
68943;DHT22;60852;52.190;4.422;2023-09-30T10:22:29;19.63;65.27
68943;DHT22;60852;52.190;4.422;2023-09-30T10:24:58;19.77;64.81
68943;DHT22;60852;52.190;4.422;2023-09-30T10:27:31;20.30;64.87
68943;DHT22;60852;52.190;4.422;2023-09-30T10:35:17;21.12;59.46
68943;DHT22;60852;52.190;4.422;2023-09-30T10:37:43;21.30;57.93
68943;DHT22;60852;52.190;4.422;2023-09-30T10:40:10;21.46;57.69
68943;DHT22;60852;52.190;4.422;2023-09-30T10:42:49;21.63;58.15
68943;DHT22;60852;52.190;4.422;2023-09-30T10:50:56;21.15;60.64
68943;DHT22;60852;52.190;4.422;2023-09-30T10:53:22;21.25;60.40
68943;DHT22;60852;52.190;4.422;2023-09-30T10:55:56;21.45;61.32
68943;DHT22;60852;52.190;4.422;2023-09-30T10:58:45;21.73;59.15
68943;DHT22;60852;52.190;4.422;2023-09-30T11:01:12;21.55;59.11
68943;DHT22;60852;52.190;4.422;2023-09-30T11:03:40;21.24;60.55
68943;DHT22;60852;52.190;4.422;2023-09-30T11:06:06;21.11;61.23
68943;DHT22;60852;52.190;4.422;2023-09-30T11:08:32;21.12;61.75
68943;DHT22;60852;52.190;4.422;2023-09-30T11:10:58;21.21;62.09
68943;DHT22;60852;52.190;4.422;2023-09-30T11:13:32;21.08;61.79
68943;DHT22;60852;52.190;4.422;2023-09-30T11:16:03;21.07;62.37
68943;DHT22;60852;52.190;4.422;2023-09-30T11:18:34;21.01;62.54
68943;DHT22;60852;52.190;4.422;2023-09-30T11:21:10;21.03;62.67
68943;DHT22;60852;52.190;4.422;2023-09-30T11:23:37;20.83;61.83
68943;DHT22;60852;52.190;4.422;2023-09-30T11:26:04;20.66;61.83
68943;DHT22;60852;52.190;4.422;2023-09-30T11:28:41;20.57;61.87
68943;DHT22;60852;52.190;4.422;2023-09-30T11:31:12;20.46;61.48
68943;DHT22;60852;52.190;4.422;2023-09-30T11:33:50;20.36;62.13
68943;DHT22;60852;52.190;4.422;2023-09-30T11:36:19;20.28;62.94
68943;DHT22;60852;52.190;4.422;2023-09-30T11:38:46;20.22;63.04
68943;DHT22;60852;52.190;4.422;2023-09-30T11:41:13;20.19;62.84
68943;DHT22;60852;52.190;4.422;2023-09-30T11:43:58;20.25;62.98
68943;DHT22;60852;52.190;4.422;2023-09-30T11:46:25;20.43;62.96
68943;DHT22;60852;52.190;4.422;2023-09-30T11:49:03;20.50;62.51
68943;DHT22;60852;52.190;4.422;2023-09-30T11:51:42;20.60;63.04
68943;DHT22;60852;52.190;4.422;2023-09-30T11:54:11;20.69;62.83
68943;DHT22;60852;52.190;4.422;2023-09-30T11:56:37;20.79;63.11
68943;DHT22;60852;52.190;4.422;2023-09-30T11:59:03;20.97;63.11
68943;DHT22;60852;52.190;4.422;2023-09-30T12:01:30;21.15;61.82
68943;DHT22;60852;52.190;4.422;2023-09-30T12:04:00;21.17;60.06
68943;DHT22;60852;52.190;4.422;2023-09-30T12:06:26;21.10;59.53
68943;DHT22;60852;52.190;4.422;2023-09-30T12:08:51;21.12;59.94
68943;DHT22;60852;52.190;4.422;2023-09-30T12:11:18;21.10;60.57
68943;DHT22;60852;52.190;4.422;2023-09-30T12:13:44;21.12;61.12
68943;DHT22;60852;52.190;4.422;2023-09-30T12:16:10;21.06;59.72
68943;DHT22;60852;52.190;4.422;2023-09-30T12:18:38;20.93;60.76
68943;DHT22;60852;52.190;4.422;2023-09-30T12:21:04;20.81;60.59
68943;DHT22;60852;52.190;4.422;2023-09-30T12:23:32;20.81;60.95
68943;DHT22;60852;52.190;4.422;2023-09-30T12:25:57;20.53;61.34
68943;DHT22;60852;52.190;4.422;2023-09-30T12:28:23;20.53;62.37
68943;DHT22;60852;52.190;4.422;2023-09-30T12:30:48;20.60;62.19
68943;DHT22;60852;52.190;4.422;2023-09-30T12:33:13;20.67;62.55
68943;DHT22;60852;52.190;4.422;2023-09-30T12:35:39;20.76;62.66
68943;DHT22;60852;52.190;4.422;2023-09-30T12:38:04;20.83;62.61
68943;DHT22;60852;52.190;4.422;2023-09-30T12:40:30;20.80;62.35
68943;DHT22;60852;52.190;4.422;2023-09-30T12:42:56;20.69;62.11
68943;DHT22;60852;52.190;4.422;2023-09-30T12:45:21;20.62;62.28
68943;DHT22;60852;52.190;4.422;2023-09-30T12:47:47;20.53;62.34
68943;DHT22;60852;52.190;4.422;2023-09-30T12:50:13;20.62;61.88
68943;DHT22;60852;52.190;4.422;2023-09-30T12:52:38;20.65;61.44
68943;DHT22;60852;52.190;4.422;2023-09-30T12:55:05;20.66;61.24
68943;DHT22;60852;52.190;4.422;2023-09-30T12:57:31;20.59;61.39
68943;DHT22;60852;52.190;4.422;2023-09-30T12:59:56;20.57;62.33
68943;DHT22;60852;52.190;4.422;2023-09-30T13:02:22;20.46;60.86
68943;DHT22;60852;52.190;4.422;2023-09-30T13:04:48;20.24;61.75
68943;DHT22;60852;52.190;4.422;2023-09-30T13:07:14;20.26;63.18
68943;DHT22;60852;52.190;4.422;2023-09-30T13:09:39;20.33;64.12
68943;DHT22;60852;52.190;4.422;2023-09-30T13:12:06;20.47;63.38
68943;DHT22;60852;52.190;4.422;2023-09-30T13:14:32;20.63;62.73
68943;DHT22;60852;52.190;4.422;2023-09-30T13:16:57;20.67;62.46
68943;DHT22;60852;52.190;4.422;2023-09-30T13:19:23;20.72;62.74
68943;DHT22;60852;52.190;4.422;2023-09-30T13:21:49;20.69;63.00
68943;DHT22;60852;52.190;4.422;2023-09-30T13:24:21;20.50;62.21
68943;DHT22;60852;52.190;4.422;2023-09-30T13:26:46;20.49;63.10
68943;DHT22;60852;52.190;4.422;2023-09-30T13:29:12;20.55;62.94
68943;DHT22;60852;52.190;4.422;2023-09-30T13:31:39;20.65;62.33
68943;DHT22;60852;52.190;4.422;2023-09-30T13:34:05;20.73;62.90
68943;DHT22;60852;52.190;4.422;2023-09-30T13:36:31;20.77;61.04
68943;DHT22;60852;52.190;4.422;2023-09-30T13:38:56;20.66;62.14
68943;DHT22;60852;52.190;4.422;2023-09-30T13:41:22;20.63;62.96
68943;DHT22;60852;52.190;4.422;2023-09-30T13:43:47;20.62;61.27
68943;DHT22;60852;52.190;4.422;2023-09-30T13:46:13;20.52;60.10
68943;DHT22;60852;52.190;4.422;2023-09-30T13:48:39;20.59;59.08
68943;DHT22;60852;52.190;4.422;2023-09-30T13:51:08;20.70;58.38
68943;DHT22;60852;52.190;4.422;2023-09-30T13:53:35;20.72;58.77
68943;DHT22;60852;52.190;4.422;2023-09-30T13:56:01;20.86;58.41
68943;DHT22;60852;52.190;4.422;2023-09-30T13:58:26;20.93;58.34
68943;DHT22;60852;52.190;4.422;2023-09-30T14:00:52;21.00;58.34
68943;DHT22;60852;52.190;4.422;2023-09-30T14:03:18;20.90;57.06
68943;DHT22;60852;52.190;4.422;2023-09-30T14:05:45;20.80;58.61
68943;DHT22;60852;52.190;4.422;2023-09-30T14:08:11;20.84;58.92
68943;DHT22;60852;52.190;4.422;2023-09-30T14:10:37;20.93;58.88
68943;DHT22;60852;52.190;4.422;2023-09-30T14:13:02;20.90;58.59
68943;DHT22;60852;52.190;4.422;2023-09-30T14:15:29;20.76;57.71
68943;DHT22;60852;52.190;4.422;2023-09-30T14:17:59;20.88;58.54
68943;DHT22;60852;52.190;4.422;2023-09-30T14:20:25;20.94;57.47
68943;DHT22;60852;52.190;4.422;2023-09-30T14:22:51;20.97;57.30
68943;DHT22;60852;52.190;4.422;2023-09-30T14:25:17;20.80;57.82
68943;DHT22;60852;52.190;4.422;2023-09-30T14:27:43;20.63;58.39
68943;DHT22;60852;52.190;4.422;2023-09-30T14:30:09;20.62;58.79
68943;DHT22;60852;52.190;4.422;2023-09-30T14:32:35;20.70;59.06
68943;DHT22;60852;52.190;4.422;2023-09-30T14:35:00;20.79;59.22
68943;DHT22;60852;52.190;4.422;2023-09-30T14:37:26;20.84;59.53
68943;DHT22;60852;52.190;4.422;2023-09-30T14:39:52;20.87;58.94
68943;DHT22;60852;52.190;4.422;2023-09-30T14:42:17;20.81;59.19
68943;DHT22;60852;52.190;4.422;2023-09-30T14:44:43;20.83;59.50
68943;DHT22;60852;52.190;4.422;2023-09-30T14:47:09;20.63;58.85
68943;DHT22;60852;52.190;4.422;2023-09-30T14:49:34;20.45;58.00
68943;DHT22;60852;52.190;4.422;2023-09-30T14:52:00;20.33;58.99
68943;DHT22;60852;52.190;4.422;2023-09-30T14:54:26;20.22;57.43
68943;DHT22;60852;52.190;4.422;2023-09-30T14:56:51;20.09;57.88
68943;DHT22;60852;52.190;4.422;2023-09-30T14:59:17;20.14;58.16
68943;DHT22;60852;52.190;4.422;2023-09-30T15:01:43;20.15;58.99
68943;DHT22;60852;52.190;4.422;2023-09-30T15:04:09;20.22;59.26
68943;DHT22;60852;52.190;4.422;2023-09-30T15:06:34;20.09;59.74
68943;DHT22;60852;52.190;4.422;2023-09-30T15:09:03;20.04;60.36
68943;DHT22;60852;52.190;4.422;2023-09-30T15:11:29;20.14;60.76
68943;DHT22;60852;52.190;4.422;2023-09-30T15:13:55;20.18;60.91
68943;DHT22;60852;52.190;4.422;2023-09-30T15:16:22;20.17;60.80
68943;DHT22;60852;52.190;4.422;2023-09-30T15:18:49;20.17;61.30
68943;DHT22;60852;52.190;4.422;2023-09-30T15:21:15;20.24;61.54
68943;DHT22;60852;52.190;4.422;2023-09-30T15:23:41;20.32;61.61
68943;DHT22;60852;52.190;4.422;2023-09-30T15:26:08;20.25;60.67
68943;DHT22;60852;52.190;4.422;2023-09-30T15:28:34;20.19;61.33
68943;DHT22;60852;52.190;4.422;2023-09-30T15:31:00;20.08;61.49
68943;DHT22;60852;52.190;4.422;2023-09-30T15:33:28;20.01;61.74
68943;DHT22;60852;52.190;4.422;2023-09-30T15:35:54;19.97;61.90
68943;DHT22;60852;52.190;4.422;2023-09-30T15:38:20;19.91;61.85
68943;DHT22;60852;52.190;4.422;2023-09-30T15:40:56;19.82;62.02
68943;DHT22;60852;52.190;4.422;2023-09-30T15:43:25;19.77;62.22
68943;DHT22;60852;52.190;4.422;2023-09-30T15:45:51;19.74;62.68
68943;DHT22;60852;52.190;4.422;2023-09-30T15:48:17;19.68;62.95
68943;DHT22;60852;52.190;4.422;2023-09-30T15:50:43;19.70;63.00
68943;DHT22;60852;52.190;4.422;2023-09-30T15:53:09;19.66;63.24
68943;DHT22;60852;52.190;4.422;2023-09-30T15:55:34;19.64;63.38
68943;DHT22;60852;52.190;4.422;2023-09-30T15:58:01;19.74;63.08